KDKX

Knoxville Downtown Island Airport

Knoxville, Tennessee, USA
METAR KDKX 220935Z AUTO 00000KT 10SM OVC100 19/19 A3010 RMK A01
Observed Flight Rules
May-22 @ 09:35 UTC (30 minutes ago) Visual Flight Rules
Visibility Clouds
10 miles
  • Overcast at 10,000' AGL
Temperatures Readings
Current 19°C / 66°F
Dewpoint 19°C / 66°F
Humidity 100%
Altimeter 30.1" Hg
Pressure 1019 hPa
Elevation 254
METAR KDKX 220935Z AUTO 00000KT 10SM OVC100 19/19 A3010 RMK A01
Observed Flight Rules
May-22 @ 09:35 UTC
(30 minutes ago)
VFR
Clouds
  • Overcast at 10,000' AGL
Temperature Dewpoint
19°C / 66°F 19°C / 66°F
Humidity Altimeter Pressure
100% 30.1" Hg 1019 hPa